Time;durP1;ratioP1;P1;durP2;ratioP2;P2;SDS_P1;SDS_P2;PMS_P1;PMS_P2;Temp;Humidity;BMP_temperature;BMP_pressure;BME280_temperature;BME280_humidity;BME280_pressure;Samples;Min_cycle;Max_cycle;Signal;HPM_P1;HPM_P2
2023/05/01 08:11:44;;;;;;;20.08;8.02;;;;;;;13.60;90.90;101266.09;5114317;27;20351;-70
2023/05/01 08:14:12;;;;;;;16.25;8.70;;;;;;;13.71;92.36;101263.59;5090945;28;20038;-74
2023/05/01 08:16:38;;;;;;;13.90;7.90;;;;;;;13.82;88.13;101254.63;5110118;28;20024;-70
2023/05/01 08:19:03;;;;;;;15.50;7.88;;;;;;;13.88;83.43;101263.75;5109866;28;20026;-68
2023/05/01 08:21:28;;;;;;;14.88;8.15;;;;;;;13.91;84.97;101261.38;5110254;28;20057;-68
2023/05/01 08:23:55;;;;;;;16.67;7.65;;;;;;;13.89;85.12;101266.22;5110262;28;20030;-68
2023/05/01 08:26:21;;;;;;;15.77;8.00;;;;;;;13.94;84.00;101260.88;5086440;28;20071;-68
2023/05/01 08:28:46;;;;;;;17.13;7.45;;;;;;;13.97;81.85;101254.16;5098915;28;20067;-68
2023/05/01 08:31:12;;;;;;;14.10;8.18;;;;;;;14.14;82.46;101248.81;5109786;28;20421;-68
2023/05/01 08:33:40;;;;;;;11.07;7.97;;;;;;;14.23;84.57;101258.25;5088236;28;20039;-68
2023/05/01 08:36:07;;;;;;;16.60;7.57;;;;;;;14.26;75.75;101255.03;5101569;28;20038;-68
2023/05/01 08:38:32;;;;;;;13.10;7.43;;;;;;;14.33;76.01;101255.75;5090236;28;20077;-67
2023/05/01 08:41:00;;;;;;;11.82;7.18;;;;;;;14.39;75.91;101253.97;5103742;28;20115;-71
2023/05/01 08:43:26;;;;;;;13.15;7.00;;;;;;;14.42;74.04;101252.63;5106147;28;20031;-70
2023/05/01 08:45:54;;;;;;;13.25;7.07;;;;;;;14.50;71.64;101265.91;5107396;28;20055;-67
2023/05/01 08:48:20;;;;;;;9.13;6.32;;;;;;;14.53;70.70;101260.78;5109487;28;20063;-68
2023/05/01 08:50:46;;;;;;;15.50;6.80;;;;;;;14.52;71.66;101259.16;5109586;28;20028;-68
2023/05/01 08:53:15;;;;;;;14.57;7.15;;;;;;;14.61;73.02;101266.94;5109502;28;20028;-68
2023/05/01 08:55:44;;;;;;;12.50;7.22;;;;;;;14.51;71.38;101262.94;5107885;28;20036;-68
2023/05/01 08:58:12;;;;;;;15.40;6.63;;;;;;;14.48;72.38;101263.41;5108242;28;20032;-68
2023/05/01 09:00:39;;;;;;;14.63;7.28;;;;;;;14.54;73.64;101259.72;5107209;28;20107;-68
2023/05/01 09:03:05;;;;;;;18.85;7.20;;;;;;;14.59;74.76;101269.88;5109293;28;20111;-68
2023/05/01 09:05:32;;;;;;;11.45;7.55;;;;;;;14.77;76.50;101268.09;5109643;28;20023;-68
2023/05/01 09:07:58;;;;;;;11.07;7.43;;;;;;;14.65;72.41;101268.94;5109114;28;20032;-68
2023/05/01 09:10:23;;;;;;;11.45;7.75;;;;;;;14.70;73.65;101271.78;5106673;28;20094;-68
2023/05/01 09:12:56;;;;;;;10.43;7.72;;;;;;;14.65;71.77;101268.94;5109028;28;20483;-68
2023/05/01 09:15:22;;;;;;;9.05;7.63;;;;;;;14.61;73.69;101273.22;5107597;28;20020;-70
2023/05/01 09:17:47;;;;;;;13.07;8.30;;;;;;;14.65;75.15;101263.50;5097822;28;20542;-68
2023/05/01 09:20:13;;;;;;;13.05;7.68;;;;;;;14.79;76.51;101261.31;5108810;28;20114;-68
2023/05/01 09:22:39;;;;;;;14.30;7.53;;;;;;;14.83;74.39;101258.94;5101317;28;20037;-69
2023/05/01 09:25:05;;;;;;;11.73;7.05;;;;;;;14.95;71.90;101261.63;5110465;28;20172;-69
2023/05/01 09:27:37;;;;;;;13.80;7.78;;;;;;;14.99;69.26;101263.63;5106208;28;20058;-74
2023/05/01 09:30:04;;;;;;;10.25;7.28;;;;;;;15.07;69.61;101265.13;5071002;28;20464;-71
2023/05/01 09:32:30;;;;;;;10.98;8.00;;;;;;;15.10;68.12;101267.34;5093030;28;20032;-74
2023/05/01 09:35:10;;;;;;;9.90;7.35;;;;;;;15.27;68.92;101270.09;5092625;28;20222;-73
2023/05/01 09:37:35;;;;;;;9.52;7.18;;;;;;;15.37;67.97;101259.38;5094186;28;20165;-71
2023/05/01 09:40:31;;;;;;;11.32;7.28;;;;;;;15.52;67.58;101263.41;5094929;28;20115;-80
2023/05/01 09:43:03;;;;;;;12.57;7.50;;;;;;;15.48;66.18;101265.00;5094820;28;20032;-76
2023/05/01 09:45:28;;;;;;;11.38;7.00;;;;;;;15.58;66.14;101260.53;5094669;28;20039;-78
2023/05/01 09:48:10;;;;;;;11.43;7.60;;;;;;;15.65;66.49;101263.06;5071787;28;20391;-70
2023/05/01 09:50:35;;;;;;;11.98;7.63;;;;;;;15.69;65.93;101261.50;5076068;28;20028;-70
2023/05/01 09:53:03;;;;;;;13.55;7.30;;;;;;;15.88;65.98;101267.56;5094736;28;20073;-70
2023/05/01 09:55:28;;;;;;;12.68;7.20;;;;;;;15.89;64.10;101271.09;5094419;28;20020;-70
2023/05/01 09:57:54;;;;;;;13.40;7.72;;;;;;;15.99;68.40;101267.69;5094961;28;20137;-70
2023/05/01 10:00:20;;;;;;;15.25;8.35;;;;;;;15.94;65.58;101260.25;5093683;28;20419;-71
2023/05/01 10:02:47;;;;;;;12.48;7.18;;;;;;;16.07;64.53;101276.28;5092707;28;20471;-71
2023/05/01 10:05:13;;;;;;;17.02;7.68;;;;;;;16.06;62.94;101276.53;5093324;28;20567;-70
2023/05/01 10:07:56;;;;;;;11.02;6.88;;;;;;;16.09;63.33;101263.22;5093884;28;20035;-70
2023/05/01 10:11:10;;;;;;;10.20;6.60;;;;;;;16.22;63.66;101272.94;5075706;28;20055;-74
2023/05/01 10:13:35;;;;;;;9.27;6.93;;;;;;;16.21;60.81;101268.53;5094357;28;20399;-73
2023/05/01 10:16:04;;;;;;;11.13;7.55;;;;;;;16.25;63.06;101274.34;5076088;28;20024;-72
2023/05/01 10:18:30;;;;;;;15.35;8.05;;;;;;;16.27;61.65;101273.03;5063042;28;20024;-74
2023/05/01 10:20:55;;;;;;;13.68;8.13;;;;;;;16.27;62.28;101275.75;5086138;28;20047;-75
2023/05/01 10:23:21;;;;;;;12.82;7.45;;;;;;;16.31;63.08;101278.78;5068856;28;20491;-75
2023/05/01 10:25:48;;;;;;;11.32;7.30;;;;;;;16.23;62.81;101271.88;5088190;28;20028;-74
2023/05/01 10:28:14;;;;;;;15.88;8.13;;;;;;;16.36;64.27;101275.31;5074724;28;20032;-73
2023/05/01 10:30:40;;;;;;;14.27;7.05;;;;;;;16.37;63.08;101280.50;5065397;28;20455;-73
2023/05/01 10:33:06;;;;;;;11.45;8.20;;;;;;;16.52;65.09;101273.59;5077451;28;20168;-72
2023/05/01 10:35:37;;;;;;;13.20;7.82;;;;;;;16.39;63.50;101275.59;5114221;28;20054;-72
2023/05/01 10:38:06;;;;;;;12.57;7.70;;;;;;;16.38;65.07;101273.13;5097907;28;20099;-72
2023/05/01 10:40:37;;;;;;;9.38;7.50;;;;;;;16.39;64.88;101278.34;5093987;28;20662;-72
2023/05/01 10:43:16;;;;;;;14.05;7.30;;;;;;;16.50;65.02;101292.13;5093847;28;20028;-72
2023/05/01 10:45:48;;;;;;;12.68;7.63;;;;;;;16.39;63.28;101281.06;5093712;28;20157;-72
2023/05/01 10:48:41;;;;;;;11.15;7.57;;;;;;;16.41;65.19;101289.84;5075498;28;20043;-72
2023/05/01 10:51:08;;;;;;;13.50;7.28;;;;;;;16.23;62.38;101292.88;5054185;28;20044;-71
2023/05/01 10:53:33;;;;;;;13.48;7.28;;;;;;;16.15;62.95;101290.59;5072027;28;20196;-70
2023/05/01 10:55:59;;;;;;;11.07;7.30;;;;;;;16.15;63.13;101287.84;5074847;28;20487;-71
2023/05/01 10:58:37;;;;;;;14.35;7.25;;;;;;;16.28;64.00;101295.69;5093133;28;20050;-71
2023/05/01 11:01:31;;;;;;;11.48;8.25;;;;;;;16.32;63.44;101293.25;5072332;28;20435;-71
2023/05/01 11:03:59;;;;;;;15.93;7.88;;;;;;;16.27;61.85;101294.03;5093754;28;20085;-71
2023/05/01 11:06:25;;;;;;;12.90;7.60;;;;;;;16.18;60.97;101284.63;5075076;28;20035;-70
2023/05/01 11:08:50;;;;;;;13.13;7.55;;;;;;;16.35;62.97;101285.41;5075342;28;20024;-71
2023/05/01 11:11:18;;;;;;;13.05;7.68;;;;;;;16.39;61.86;101288.44;5090532;28;20124;-71
2023/05/01 11:14:03;;;;;;;12.25;7.10;;;;;;;16.39;62.29;101292.00;5075263;28;20505;-71
2023/05/01 11:16:38;;;;;;;13.50;7.93;;;;;;;16.36;61.47;101294.41;5075036;28;20046;-71
2023/05/01 11:19:23;;;;;;;10.48;7.85;;;;;;;16.43;62.07;101286.88;5093568;28;20107;-71
2023/05/01 11:21:49;;;;;;;11.77;7.70;;;;;;;16.45;61.77;101290.16;5091405;28;20156;-71
2023/05/01 11:24:17;;;;;;;13.32;7.10;;;;;;;16.42;62.09;101286.03;5093052;28;20024;-71
2023/05/01 11:26:43;;;;;;;12.02;7.68;;;;;;;16.46;61.22;101286.38;5073206;28;20055;-72
2023/05/01 11:29:10;;;;;;;10.77;7.50;;;;;;;16.58;62.25;101302.63;5092416;28;20467;-72
2023/05/01 11:31:37;;;;;;;17.80;7.80;;;;;;;16.62;61.14;101290.09;5074182;28;20031;-72
2023/05/01 11:34:12;;;;;;;13.48;7.57;;;;;;;16.64;60.31;101288.75;5093045;28;20032;-71
2023/05/01 11:36:57;;;;;;;14.10;7.82;;;;;;;16.76;59.98;101288.63;5073799;28;20097;-71
2023/05/01 11:39:34;;;;;;;10.88;6.65;;;;;;;16.84;57.72;101293.63;5073204;28;20027;-71
2023/05/01 11:42:20;;;;;;;13.13;6.60;;;;;;;16.87;56.79;101289.59;5059331;28;20375;-71
2023/05/01 11:45:11;;;;;;;13.05;6.85;;;;;;;17.06;57.51;101301.03;5071536;28;20502;-70
2023/05/01 11:47:38;;;;;;;11.32;6.25;;;;;;;17.10;55.49;101295.84;5054296;28;20403;-71
2023/05/01 11:50:12;;;;;;;13.65;6.22;;;;;;;17.11;54.89;101294.78;5054689;28;20077;-73
2023/05/01 11:52:54;;;;;;;17.88;6.07;;;;;;;17.30;55.20;101290.59;5054397;28;20127;-70
2023/05/01 11:55:31;;;;;;;7.95;5.63;;;;;;;17.41;54.94;101296.97;5054169;28;20070;-69
2023/05/01 11:57:56;;;;;;;10.52;5.90;;;;;;;17.59;55.44;101292.19;5072707;28;20020;-71
2023/05/01 12:00:30;;;;;;;9.40;5.47;;;;;;;17.60;55.69;101291.91;5084098;28;20064;-71
2023/05/01 12:03:04;;;;;;;10.60;7.07;;;;;;;17.60;55.47;101299.31;5092891;28;20028;-71
2023/05/01 12:05:31;;;;;;;10.57;7.13;;;;;;;17.49;56.31;101296.50;5089387;28;20036;-71
2023/05/01 12:08:08;;;;;;;11.85;6.82;;;;;;;17.46;56.93;101305.22;5092530;28;20441;-71
2023/05/01 12:10:35;;;;;;;14.85;7.50;;;;;;;17.29;57.12;101294.41;5073697;28;20160;-70
2023/05/01 12:13:06;;;;;;;10.45;7.03;;;;;;;17.26;57.11;101310.53;5092716;28;20028;-70
2023/05/01 12:15:35;;;;;;;13.85;6.93;;;;;;;17.14;55.34;101302.47;5092447;28;20059;-71
2023/05/01 12:18:00;;;;;;;9.85;6.53;;;;;;;17.24;56.11;101301.72;5090521;28;20479;-70
2023/05/01 12:20:47;;;;;;;11.55;6.68;;;;;;;17.33;56.10;101308.38;5091252;28;20039;-69
2023/05/01 12:23:17;;;;;;;9.68;6.25;;;;;;;17.40;55.56;101300.78;5092499;28;20023;-70
2023/05/01 12:25:43;;;;;;;11.75;6.20;;;;;;;17.47;54.45;101309.63;5091664;28;20115;-69
2023/05/01 12:28:18;;;;;;;10.35;6.65;;;;;;;17.44;53.51;101299.19;5092218;28;20028;-72
2023/05/01 12:30:45;;;;;;;10.43;5.68;;;;;;;17.53;52.99;101305.03;5073820;28;20117;-71
2023/05/01 12:33:11;;;;;;;10.10;5.03;;;;;;;17.55;51.58;101308.31;5073488;28;20032;-70
2023/05/01 12:35:38;;;;;;;7.70;4.80;;;;;;;17.58;49.49;101304.25;5092165;28;20055;-69
2023/05/01 12:38:32;;;;;;;9.80;5.32;;;;;;;17.58;51.93;101301.50;5077556;28;20043;-68
2023/05/01 12:40:59;;;;;;;7.20;4.95;;;;;;;17.76;51.52;101306.56;5044776;28;20052;-67
2023/05/01 12:43:31;;;;;;;7.88;5.03;;;;;;;17.88;51.13;101298.97;5084733;28;20514;-71
2023/05/01 12:45:57;;;;;;;6.70;4.75;;;;;;;18.06;49.52;101297.75;5073508;28;20110;-68
2023/05/01 12:48:23;;;;;;;7.25;4.35;;;;;;;18.24;52.21;101303.91;5091847;28;20161;-68
2023/05/01 12:50:55;;;;;;;9.52;5.55;;;;;;;18.27;51.27;101291.56;5074070;28;20360;-69
2023/05/01 12:53:22;;;;;;;10.57;5.35;;;;;;;18.36;51.29;101296.28;5091795;28;20055;-71
2023/05/01 12:55:55;;;;;;;13.32;5.32;;;;;;;18.55;52.29;101290.34;5089823;28;20064;-74
2023/05/01 12:58:21;;;;;;;10.73;5.47;;;;;;;18.57;51.87;101297.22;5077187;28;20382;-70
2023/05/01 13:00:46;;;;;;;16.20;6.38;;;;;;;18.53;51.68;101307.03;5092466;28;20042;-68
2023/05/01 13:03:12;;;;;;;10.90;6.20;;;;;;;18.49;51.24;101303.19;5091164;28;20035;-68
2023/05/01 13:05:59;;;;;;;13.30;6.57;;;;;;;18.49;52.55;101300.44;5073443;28;20024;-69
2023/05/01 13:08:32;;;;;;;10.90;6.22;;;;;;;18.50;51.50;101304.84;5088412;28;20139;-68
2023/05/01 13:11:00;;;;;;;10.43;5.70;;;;;;;18.59;51.03;101300.50;5095398;28;20052;-74
2023/05/01 13:13:27;;;;;;;11.18;5.60;;;;;;;18.66;49.04;101315.88;5067698;28;20028;-73
2023/05/01 13:15:53;;;;;;;11.43;5.35;;;;;;;18.64;50.01;101318.06;5081830;28;20082;-72
2023/05/01 13:18:18;;;;;;;9.32;5.68;;;;;;;18.38;49.75;101309.72;5075763;28;20036;-70
2023/05/01 13:20:44;;;;;;;9.57;5.70;;;;;;;18.24;50.33;101312.94;5096662;28;20477;-69
2023/05/01 13:23:11;;;;;;;8.60;4.20;;;;;;;18.06;49.03;101305.16;5077799;28;20305;-71
2023/05/01 13:25:37;;;;;;;7.35;4.20;;;;;;;17.92;50.56;101301.22;5094789;28;20028;-70
2023/05/01 13:28:03;;;;;;;8.13;5.07;;;;;;;17.80;51.00;101304.13;5076967;28;20498;-71
2023/05/01 13:30:33;;;;;;;6.40;4.03;;;;;;;17.62;49.22;101299.88;5071356;28;20092;-70
2023/05/01 13:33:01;;;;;;;7.38;4.18;;;;;;;17.79;50.23;101302.50;5061915;28;20025;-73
2023/05/01 13:36:03;;;;;;;10.88;5.22;;;;;;;18.13;51.44;101303.03;5058017;28;20036;-79
2023/05/01 13:38:56;;;;;;;7.65;4.15;;;;;;;18.36;50.20;101292.75;5067048;28;20040;-78
2023/05/01 13:41:41;;;;;;;6.65;3.88;;;;;;;18.66;47.76;101300.25;5057646;28;20024;-80
2023/05/01 13:44:06;;;;;;;6.78;3.58;;;;;;;18.47;47.42;101305.38;5073484;28;20057;-77
2023/05/01 13:46:50;;;;;;;4.55;3.20;;;;;;;18.37;48.10;101310.81;5074247;28;20028;-77
2023/05/01 13:49:42;;;;;;;6.53;3.33;;;;;;;18.24;47.67;101303.91;5073836;28;20503;-76
2023/05/01 13:55:16;;;;;;;3.00;2.05;;;;;;;17.89;45.90;101313.53;5080295;28;19915;-71
2023/05/01 13:57:42;;;;;;;3.17;1.90;;;;;;;17.85;46.25;101317.84;5093146;28;20032;-73
2023/05/01 14:02:58;;;;;;;4.50;2.17;;;;;;;17.70;46.91;101318.56;5083770;28;20544;-72
2023/05/01 14:05:29;;;;;;;4.25;1.80;;;;;;;17.66;47.47;101322.91;5076656;28;20055;-73
2023/05/01 14:07:57;;;;;;;5.03;2.10;;;;;;;17.59;46.44;101322.28;5094750;28;20027;-73
2023/05/01 14:10:25;;;;;;;7.45;2.10;;;;;;;17.61;47.23;101322.88;5094091;28;20131;-73
2023/05/01 14:12:54;;;;;;;5.20;2.10;;;;;;;17.67;47.62;101317.16;5093881;28;20035;-73
2023/05/01 14:15:19;;;;;;;3.95;1.75;;;;;;;17.76;47.81;101320.25;5092809;28;20020;-74
2023/05/01 14:17:44;;;;;;;4.35;2.30;;;;;;;17.71;46.58;101317.47;5092955;28;20108;-73
2023/05/01 14:20:32;;;;;;;3.92;2.05;;;;;;;17.73;47.66;101319.97;5076361;28;20520;-83
2023/05/01 14:22:58;;;;;;;4.47;2.03;;;;;;;17.81;47.64;101323.00;5075970;28;20020;-76
2023/05/01 14:25:33;;;;;;;6.30;1.95;;;;;;;18.11;46.92;101316.13;5080324;28;20025;-75
2023/05/01 14:28:08;;;;;;;6.07;2.22;;;;;;;18.31;46.37;101325.56;5091762;28;20031;-81
2023/05/01 14:30:43;;;;;;;3.78;1.88;;;;;;;18.48;44.52;101325.38;5093663;28;20028;-76
2023/05/01 14:33:10;;;;;;;3.92;1.73;;;;;;;18.68;43.58;101317.25;5068377;28;20387;-75
2023/05/01 14:35:48;;;;;;;4.00;1.80;;;;;;;18.86;44.58;101315.97;5065342;28;20116;-74
2023/05/01 14:38:15;;;;;;;6.55;2.35;;;;;;;18.85;43.43;101314.31;5076026;28;20032;-74
2023/05/01 14:40:41;;;;;;;3.47;1.90;;;;;;;19.10;42.82;101321.81;5091709;28;20460;-73
2023/05/01 14:43:08;;;;;;;7.53;2.40;;;;;;;19.04;43.21;101319.34;5075242;28;20036;-73
2023/05/01 14:45:35;;;;;;;7.30;2.13;;;;;;;19.05;44.36;101318.22;5064247;28;20029;-73
2023/05/01 14:48:01;;;;;;;5.22;2.20;;;;;;;19.59;43.38;101320.47;5067503;28;20027;-73
2023/05/01 14:50:26;;;;;;;3.15;1.90;;;;;;;19.76;42.97;101317.47;5092020;28;20470;-74
2023/05/01 14:52:57;;;;;;;7.68;2.80;;;;;;;19.33;43.96;101329.81;5077723;28;20036;-75
2023/05/01 14:55:30;;;;;;;5.43;2.70;;;;;;;18.91;44.67;101328.88;5074890;28;20066;-74
2023/05/01 14:57:58;;;;;;;7.07;2.55;;;;;;;18.65;45.70;101344.38;5064414;28;20039;-75
2023/05/01 15:00:24;;;;;;;4.63;2.53;;;;;;;18.33;44.38;101332.44;5053739;28;20460;-75
2023/05/01 15:02:50;;;;;;;6.47;2.85;;;;;;;18.19;45.85;101329.34;5088735;28;20032;-75
2023/05/01 15:05:16;;;;;;;4.40;2.80;;;;;;;18.41;45.79;101331.09;5074838;28;20035;-75
2023/05/01 15:07:42;;;;;;;3.97;2.92;;;;;;;18.68;45.64;101332.88;5074783;28;20380;-75
2023/05/01 15:10:08;;;;;;;5.90;3.10;;;;;;;18.55;45.91;101337.75;5092317;28;20087;-75
2023/05/01 15:12:34;;;;;;;5.25;2.97;;;;;;;18.43;46.16;101342.63;5092753;28;20132;-75
2023/05/01 15:14:59;;;;;;;6.63;3.00;;;;;;;18.95;46.84;101335.47;5093230;28;20118;-76
2023/05/01 15:17:25;;;;;;;5.18;3.30;;;;;;;19.59;44.95;101339.69;5072652;28;20024;-75
2023/05/01 15:19:50;;;;;;;4.63;3.03;;;;;;;20.18;44.77;101334.75;5088140;28;20040;-76
2023/05/01 15:22:16;;;;;;;7.10;3.67;;;;;;;20.56;44.63;101343.41;5074849;28;20031;-77
2023/05/01 15:24:41;;;;;;;5.50;3.45;;;;;;;20.79;43.42;101336.50;5074339;28;20094;-77
2023/05/01 15:27:07;;;;;;;4.53;3.30;;;;;;;20.98;43.55;101333.09;5092838;28;20034;-74
2023/05/01 15:29:35;;;;;;;7.13;3.55;;;;;;;21.18;43.33;101343.16;5092964;28;20036;-75
2023/05/01 15:32:01;;;;;;;6.07;3.53;;;;;;;21.39;42.75;101344.69;5074927;28;20059;-75
2023/05/01 15:34:27;;;;;;;5.18;3.20;;;;;;;21.54;42.32;101340.19;5093391;28;20475;-75
2023/05/01 15:36:52;;;;;;;5.80;3.60;;;;;;;21.45;42.21;101345.44;5091645;28;20059;-74
2023/05/01 15:39:18;;;;;;;6.40;3.72;;;;;;;21.15;42.96;101341.81;5091832;28;20051;-76
2023/05/01 15:41:45;;;;;;;5.45;3.33;;;;;;;20.90;43.39;101342.78;5074473;28;20059;-77
2023/05/01 15:44:18;;;;;;;4.63;3.53;;;;;;;20.42;44.25;101348.69;5074997;28;20428;-76
2023/05/01 15:46:58;;;;;;;5.75;3.50;;;;;;;20.58;45.04;101341.22;5072482;28;20479;-76
2023/05/01 15:53:41;;;;;;;7.13;3.95;;;;;;;20.61;45.89;101339.81;5002530;28;20540;-77
2023/05/01 15:57:20;;;;;;;6.93;4.10;;;;;;;20.25;46.24;101357.25;4990138;28;20092;-83
2023/05/01 16:00:59;;;;;;;5.95;4.43;;;;;;;20.01;45.53;101363.34;5014085;28;20098;-82
2023/05/01 16:03:25;;;;;;;4.78;4.18;;;;;;;19.17;47.08;101354.44;4977205;28;20084;-76
2023/05/01 16:06:34;;;;;;;5.03;4.47;;;;;;;19.19;47.23;101371.47;4972806;28;20034;-79
